sensor_id;sensor_type;location;lat;lon;timestamp;pressure;altitude;pressure_sealevel;temperature;humidity
37856;BME280;23694;43.274;26.924;2023-07-20T00:02:04;98281.16;;;26.68;50.75
37856;BME280;23694;43.274;26.924;2023-07-20T00:04:31;98282.84;;;26.63;50.75
37856;BME280;23694;43.274;26.924;2023-07-20T00:06:58;98287.81;;;26.59;50.81
37856;BME280;23694;43.274;26.924;2023-07-20T00:09:26;98281.84;;;26.57;50.97
37856;BME280;23694;43.274;26.924;2023-07-20T00:11:53;98285.22;;;26.52;50.93
37856;BME280;23694;43.274;26.924;2023-07-20T00:14:19;98283.19;;;26.48;51.10
37856;BME280;23694;43.274;26.924;2023-07-20T00:16:46;98281.34;;;26.48;51.15
37856;BME280;23694;43.274;26.924;2023-07-20T00:19:12;98273.72;;;26.45;51.46
37856;BME280;23694;43.274;26.924;2023-07-20T00:21:39;98277.16;;;26.52;51.36
37856;BME280;23694;43.274;26.924;2023-07-20T00:24:06;98271.72;;;26.59;51.17
37856;BME280;23694;43.274;26.924;2023-07-20T00:26:32;98265.75;;;26.57;51.29
37856;BME280;23694;43.274;26.924;2023-07-20T00:28:58;98269.69;;;26.54;51.10
37856;BME280;23694;43.274;26.924;2023-07-20T00:31:24;98268.06;;;26.53;51.03
37856;BME280;23694;43.274;26.924;2023-07-20T00:33:51;98294.22;;;26.40;51.72
37856;BME280;23694;43.274;26.924;2023-07-20T00:36:17;98336.38;;;26.39;51.79
37856;BME280;23694;43.274;26.924;2023-07-20T00:38:43;98360.16;;;26.36;52.08
37856;BME280;23694;43.274;26.924;2023-07-20T00:41:09;98354.47;;;26.19;47.86
37856;BME280;23694;43.274;26.924;2023-07-20T00:43:35;98364.00;;;26.65;45.87
37856;BME280;23694;43.274;26.924;2023-07-20T00:46:02;98377.19;;;26.91;45.99
37856;BME280;23694;43.274;26.924;2023-07-20T00:48:29;98383.53;;;26.78;47.52
37856;BME280;23694;43.274;26.924;2023-07-20T00:50:58;98402.72;;;26.57;49.51
37856;BME280;23694;43.274;26.924;2023-07-20T00:53:25;98413.72;;;26.24;51.78
37856;BME280;23694;43.274;26.924;2023-07-20T00:55:51;98408.63;;;25.78;53.57
37856;BME280;23694;43.274;26.924;2023-07-20T00:58:18;98403.16;;;25.53;54.81
37856;BME280;23694;43.274;26.924;2023-07-20T01:00:44;98396.22;;;25.39;55.86
37856;BME280;23694;43.274;26.924;2023-07-20T01:03:10;98390.00;;;25.32;56.88
37856;BME280;23694;43.274;26.924;2023-07-20T01:11:40;98362.72;;;25.03;58.99
37856;BME280;23694;43.274;26.924;2023-07-20T01:14:08;98385.56;;;25.06;59.14
37856;BME280;23694;43.274;26.924;2023-07-20T01:16:35;98373.44;;;24.90;60.30
37856;BME280;23694;43.274;26.924;2023-07-20T01:19:01;98362.13;;;24.81;60.81
37856;BME280;23694;43.274;26.924;2023-07-20T01:21:33;98364.59;;;24.83;61.57
37856;BME280;23694;43.274;26.924;2023-07-20T01:32:40;98316.81;;;24.66;63.15
37856;BME280;23694;43.274;26.924;2023-07-20T01:35:10;98297.47;;;24.64;63.26
37856;BME280;23694;43.274;26.924;2023-07-20T01:37:40;98302.38;;;24.67;63.09
37856;BME280;23694;43.274;26.924;2023-07-20T01:40:07;98300.75;;;24.60;63.72
37856;BME280;23694;43.274;26.924;2023-07-20T01:42:34;98299.72;;;24.61;63.65
37856;BME280;23694;43.274;26.924;2023-07-20T01:45:00;98297.66;;;24.63;63.33
37856;BME280;23694;43.274;26.924;2023-07-20T01:47:26;98299.09;;;24.65;63.47
37856;BME280;23694;43.274;26.924;2023-07-20T01:49:52;98301.38;;;24.62;63.36
37856;BME280;23694;43.274;26.924;2023-07-20T01:52:18;98291.09;;;24.59;63.63
37856;BME280;23694;43.274;26.924;2023-07-20T01:54:44;98294.38;;;24.61;63.81
37856;BME280;23694;43.274;26.924;2023-07-20T01:57:10;98294.78;;;24.58;63.96
37856;BME280;23694;43.274;26.924;2023-07-20T01:59:36;98303.66;;;24.52;64.04
37856;BME280;23694;43.274;26.924;2023-07-20T02:02:03;98290.47;;;24.57;64.03
37856;BME280;23694;43.274;26.924;2023-07-20T02:04:29;98294.19;;;24.56;63.40
37856;BME280;23694;43.274;26.924;2023-07-20T02:06:55;98283.91;;;24.53;63.76
37856;BME280;23694;43.274;26.924;2023-07-20T02:09:21;98268.88;;;24.52;63.16
37856;BME280;23694;43.274;26.924;2023-07-20T02:11:47;98263.50;;;24.58;62.79
37856;BME280;23694;43.274;26.924;2023-07-20T02:14:13;98252.59;;;24.53;62.94
37856;BME280;23694;43.274;26.924;2023-07-20T02:16:40;98261.84;;;24.57;62.00
37856;BME280;23694;43.274;26.924;2023-07-20T02:19:06;98256.50;;;24.57;61.47
37856;BME280;23694;43.274;26.924;2023-07-20T02:21:32;98244.31;;;24.61;61.12
37856;BME280;23694;43.274;26.924;2023-07-20T02:23:59;98233.81;;;24.60;61.39
37856;BME280;23694;43.274;26.924;2023-07-20T02:26:25;98234.03;;;24.58;61.22
37856;BME280;23694;43.274;26.924;2023-07-20T02:28:53;98227.47;;;24.54;60.45
37856;BME280;23694;43.274;26.924;2023-07-20T02:31:19;98219.72;;;24.33;61.62
37856;BME280;23694;43.274;26.924;2023-07-20T02:33:45;98205.94;;;24.29;62.10
37856;BME280;23694;43.274;26.924;2023-07-20T02:36:11;98184.75;;;24.08;62.68
37856;BME280;23694;43.274;26.924;2023-07-20T02:38:37;98171.38;;;24.01;63.80
37856;BME280;23694;43.274;26.924;2023-07-20T02:41:03;98136.66;;;23.62;64.33
37856;BME280;23694;43.274;26.924;2023-07-20T02:43:29;98112.19;;;23.45;64.59
37856;BME280;23694;43.274;26.924;2023-07-20T02:45:56;98117.94;;;23.75;63.60
37856;BME280;23694;43.274;26.924;2023-07-20T02:48:22;98135.16;;;23.99;62.64
37856;BME280;23694;43.274;26.924;2023-07-20T02:50:48;98147.28;;;24.15;62.24
37856;BME280;23694;43.274;26.924;2023-07-20T02:53:14;98134.06;;;24.26;61.63
37856;BME280;23694;43.274;26.924;2023-07-20T02:55:40;98120.22;;;24.43;60.90
37856;BME280;23694;43.274;26.924;2023-07-20T02:58:06;98130.03;;;24.62;60.03
37856;BME280;23694;43.274;26.924;2023-07-20T03:00:32;98134.13;;;24.64;59.95
37856;BME280;23694;43.274;26.924;2023-07-20T03:02:58;98128.59;;;23.95;62.10
37856;BME280;23694;43.274;26.924;2023-07-20T03:05:24;98128.00;;;23.53;64.93
37856;BME280;23694;43.274;26.924;2023-07-20T03:07:51;98128.19;;;23.85;64.08
37856;BME280;23694;43.274;26.924;2023-07-20T03:10:17;98131.84;;;24.10;62.66
37856;BME280;23694;43.274;26.924;2023-07-20T03:12:43;98147.41;;;24.46;61.43
37856;BME280;23694;43.274;26.924;2023-07-20T03:15:09;98134.56;;;24.61;60.43
37856;BME280;23694;43.274;26.924;2023-07-20T03:17:35;98145.97;;;24.88;59.39
37856;BME280;23694;43.274;26.924;2023-07-20T03:20:01;98159.44;;;25.13;58.73
37856;BME280;23694;43.274;26.924;2023-07-20T03:22:28;98148.16;;;25.29;57.33
37856;BME280;23694;43.274;26.924;2023-07-20T03:24:54;98143.84;;;25.28;57.56
37856;BME280;23694;43.274;26.924;2023-07-20T03:27:20;98149.03;;;24.99;58.94
37856;BME280;23694;43.274;26.924;2023-07-20T03:29:47;98155.50;;;24.78;60.01
37856;BME280;23694;43.274;26.924;2023-07-20T03:32:13;98148.13;;;24.66;60.06
37856;BME280;23694;43.274;26.924;2023-07-20T03:34:39;98146.44;;;24.27;61.27
37856;BME280;23694;43.274;26.924;2023-07-20T03:37:06;98144.03;;;24.57;60.93
37856;BME280;23694;43.274;26.924;2023-07-20T03:39:32;98135.06;;;24.83;59.62
37856;BME280;23694;43.274;26.924;2023-07-20T03:41:58;98126.66;;;25.11;58.73
37856;BME280;23694;43.274;26.924;2023-07-20T03:44:25;98137.44;;;25.36;57.51
37856;BME280;23694;43.274;26.924;2023-07-20T03:46:51;98168.88;;;25.47;56.69
37856;BME280;23694;43.274;26.924;2023-07-20T03:49:17;98180.91;;;25.63;56.69
37856;BME280;23694;43.274;26.924;2023-07-20T03:51:43;98185.25;;;25.89;55.30
37856;BME280;23694;43.274;26.924;2023-07-20T03:54:09;98181.66;;;26.20;54.52
37856;BME280;23694;43.274;26.924;2023-07-20T03:56:35;98178.84;;;26.70;52.85
37856;BME280;23694;43.274;26.924;2023-07-20T03:59:02;98183.41;;;27.29;51.14
37856;BME280;23694;43.274;26.924;2023-07-20T04:01:28;98194.41;;;27.81;50.48
37856;BME280;23694;43.274;26.924;2023-07-20T04:03:54;98204.38;;;28.27;49.16
37856;BME280;23694;43.274;26.924;2023-07-20T04:06:21;98208.91;;;28.50;48.22
37856;BME280;23694;43.274;26.924;2023-07-20T04:08:48;98202.81;;;28.55;47.59
37856;BME280;23694;43.274;26.924;2023-07-20T04:11:14;98239.47;;;28.44;47.91
37856;BME280;23694;43.274;26.924;2023-07-20T04:13:40;98214.88;;;27.70;49.92
37856;BME280;23694;43.274;26.924;2023-07-20T04:16:06;98238.03;;;27.71;49.32
37856;BME280;23694;43.274;26.924;2023-07-20T04:18:32;98232.31;;;27.79;48.59
37856;BME280;23694;43.274;26.924;2023-07-20T04:20:58;98235.94;;;27.73;48.12
37856;BME280;23694;43.274;26.924;2023-07-20T04:23:24;98263.75;;;27.67;48.72
37856;BME280;23694;43.274;26.924;2023-07-20T04:25:51;98258.00;;;27.04;50.94
37856;BME280;23694;43.274;26.924;2023-07-20T04:28:17;98267.19;;;27.44;49.90
37856;BME280;23694;43.274;26.924;2023-07-20T04:30:43;98270.25;;;27.60;49.38
37856;BME280;23694;43.274;26.924;2023-07-20T04:33:09;98277.59;;;27.53;49.73
37856;BME280;23694;43.274;26.924;2023-07-20T04:36:07;98278.25;;;27.36;50.39
37856;BME280;23694;43.274;26.924;2023-07-20T04:38:34;98274.03;;;27.10;50.62
37856;BME280;23694;43.274;26.924;2023-07-20T04:41:00;98286.81;;;27.15;50.89
37856;BME280;23694;43.274;26.924;2023-07-20T04:43:28;98296.69;;;27.03;51.42
37856;BME280;23694;43.274;26.924;2023-07-20T04:45:54;98293.75;;;26.86;51.79
37856;BME280;23694;43.274;26.924;2023-07-20T04:48:20;98296.03;;;26.46;52.95
37856;BME280;23694;43.274;26.924;2023-07-20T04:50:46;98284.19;;;26.29;54.28
37856;BME280;23694;43.274;26.924;2023-07-20T04:53:13;98292.69;;;26.26;54.24
37856;BME280;23694;43.274;26.924;2023-07-20T04:55:40;98293.66;;;26.31;54.48
37856;BME280;23694;43.274;26.924;2023-07-20T04:58:06;98275.44;;;26.40;53.61
37856;BME280;23694;43.274;26.924;2023-07-20T05:00:33;98282.16;;;26.49;53.36
37856;BME280;23694;43.274;26.924;2023-07-20T05:02:59;98298.47;;;26.72;53.37
37856;BME280;23694;43.274;26.924;2023-07-20T05:05:26;98303.31;;;27.48;50.64
37856;BME280;23694;43.274;26.924;2023-07-20T05:07:54;98315.66;;;27.98;47.96
37856;BME280;23694;43.274;26.924;2023-07-20T05:10:20;98311.69;;;28.00;47.61
37856;BME280;23694;43.274;26.924;2023-07-20T05:12:46;98316.31;;;27.82;47.52
37856;BME280;23694;43.274;26.924;2023-07-20T05:15:12;98329.75;;;27.52;48.69
37856;BME280;23694;43.274;26.924;2023-07-20T05:17:38;98326.47;;;27.50;48.18
37856;BME280;23694;43.274;26.924;2023-07-20T05:20:06;98323.91;;;27.25;48.04
37856;BME280;23694;43.274;26.924;2023-07-20T05:22:32;98326.75;;;27.11;48.91
37856;BME280;23694;43.274;26.924;2023-07-20T05:24:59;98338.47;;;27.17;49.14
37856;BME280;23694;43.274;26.924;2023-07-20T05:27:25;98348.19;;;27.18;49.39
37856;BME280;23694;43.274;26.924;2023-07-20T05:29:51;98338.84;;;27.02;49.94
37856;BME280;23694;43.274;26.924;2023-07-20T05:32:17;98347.19;;;26.94;50.87
37856;BME280;23694;43.274;26.924;2023-07-20T05:34:43;98336.97;;;26.84;50.95
37856;BME280;23694;43.274;26.924;2023-07-20T05:37:09;98314.91;;;26.58;51.48
37856;BME280;23694;43.274;26.924;2023-07-20T05:39:35;98312.59;;;26.18;53.41
37856;BME280;23694;43.274;26.924;2023-07-20T05:42:01;98327.22;;;25.90;55.99
37856;BME280;23694;43.274;26.924;2023-07-20T05:44:27;98330.00;;;25.77;58.77
37856;BME280;23694;43.274;26.924;2023-07-20T05:46:53;98331.03;;;25.38;63.36
37856;BME280;23694;43.274;26.924;2023-07-20T05:49:19;98340.34;;;25.29;67.78
37856;BME280;23694;43.274;26.924;2023-07-20T05:51:45;98322.81;;;25.26;68.04
37856;BME280;23694;43.274;26.924;2023-07-20T05:54:12;98321.91;;;24.94;67.40
37856;BME280;23694;43.274;26.924;2023-07-20T05:56:38;98312.44;;;24.92;68.67
37856;BME280;23694;43.274;26.924;2023-07-20T05:59:04;98312.22;;;24.93;67.92
37856;BME280;23694;43.274;26.924;2023-07-20T06:01:30;98318.59;;;25.06;71.72
37856;BME280;23694;43.274;26.924;2023-07-20T06:03:56;98329.44;;;25.24;70.97
37856;BME280;23694;43.274;26.924;2023-07-20T06:06:22;98334.53;;;25.39;73.71
37856;BME280;23694;43.274;26.924;2023-07-20T06:08:49;98340.72;;;25.33;72.08
37856;BME280;23694;43.274;26.924;2023-07-20T06:11:15;98333.34;;;25.28;73.49
37856;BME280;23694;43.274;26.924;2023-07-20T06:13:41;98336.59;;;25.43;70.90
37856;BME280;23694;43.274;26.924;2023-07-20T06:16:09;98335.16;;;25.41;71.50
37856;BME280;23694;43.274;26.924;2023-07-20T06:18:35;98330.50;;;25.61;71.68
37856;BME280;23694;43.274;26.924;2023-07-20T06:21:01;98334.94;;;25.80;71.67
37856;BME280;23694;43.274;26.924;2023-07-20T06:23:27;98335.28;;;25.90;71.29
37856;BME280;23694;43.274;26.924;2023-07-20T06:25:53;98326.03;;;25.86;71.52
37856;BME280;23694;43.274;26.924;2023-07-20T06:28:19;98322.59;;;25.73;71.16
37856;BME280;23694;43.274;26.924;2023-07-20T06:30:45;98314.81;;;25.96;68.60
37856;BME280;23694;43.274;26.924;2023-07-20T06:33:11;98315.22;;;26.25;66.11
37856;BME280;23694;43.274;26.924;2023-07-20T06:35:37;98296.00;;;26.71;64.60
37856;BME280;23694;43.274;26.924;2023-07-20T06:38:03;98284.78;;;26.92;61.82
37856;BME280;23694;43.274;26.924;2023-07-20T06:40:30;98289.06;;;27.00;62.90
37856;BME280;23694;43.274;26.924;2023-07-20T06:42:56;98308.75;;;27.60;61.33
37856;BME280;23694;43.274;26.924;2023-07-20T06:45:23;98316.91;;;27.95;59.01
37856;BME280;23694;43.274;26.924;2023-07-20T06:47:49;98318.13;;;27.99;56.74
37856;BME280;23694;43.274;26.924;2023-07-20T06:50:15;98323.09;;;28.26;56.45
37856;BME280;23694;43.274;26.924;2023-07-20T06:52:41;98334.09;;;28.36;55.13
37856;BME280;23694;43.274;26.924;2023-07-20T06:55:08;98325.69;;;28.32;56.13
37856;BME280;23694;43.274;26.924;2023-07-20T06:57:34;98324.94;;;28.14;55.47
37856;BME280;23694;43.274;26.924;2023-07-20T07:00:00;98324.94;;;28.14;52.95
37856;BME280;23694;43.274;26.924;2023-07-20T07:02:26;98335.50;;;28.38;53.83
37856;BME280;23694;43.274;26.924;2023-07-20T07:04:52;98331.22;;;28.84;52.19
37856;BME280;23694;43.274;26.924;2023-07-20T07:07:19;98331.34;;;29.18;50.06
37856;BME280;23694;43.274;26.924;2023-07-20T07:09:45;98335.84;;;29.52;49.02
37856;BME280;23694;43.274;26.924;2023-07-20T07:12:11;98334.44;;;29.78;47.48
37856;BME280;23694;43.274;26.924;2023-07-20T07:14:37;98335.31;;;29.95;47.39
37856;BME280;23694;43.274;26.924;2023-07-20T07:17:03;98340.13;;;29.93;47.69
37856;BME280;23694;43.274;26.924;2023-07-20T07:19:29;98331.16;;;30.21;45.02
37856;BME280;23694;43.274;26.924;2023-07-20T07:21:55;98331.06;;;30.00;45.70
37856;BME280;23694;43.274;26.924;2023-07-20T07:24:22;98331.50;;;30.08;44.55
37856;BME280;23694;43.274;26.924;2023-07-20T07:26:48;98332.31;;;30.25;43.29
37856;BME280;23694;43.274;26.924;2023-07-20T07:29:14;98331.25;;;30.10;44.80
37856;BME280;23694;43.274;26.924;2023-07-20T07:31:40;98333.63;;;30.06;43.32
37856;BME280;23694;43.274;26.924;2023-07-20T07:34:06;98326.09;;;30.08;42.16
37856;BME280;23694;43.274;26.924;2023-07-20T07:36:32;98330.75;;;30.13;42.99
37856;BME280;23694;43.274;26.924;2023-07-20T07:38:59;98335.56;;;30.27;42.45
37856;BME280;23694;43.274;26.924;2023-07-20T07:41:25;98335.31;;;29.95;42.33
37856;BME280;23694;43.274;26.924;2023-07-20T07:43:51;98340.66;;;30.07;43.76
37856;BME280;23694;43.274;26.924;2023-07-20T07:46:17;98335.66;;;30.33;42.14
37856;BME280;23694;43.274;26.924;2023-07-20T07:48:44;98331.72;;;30.57;40.76
37856;BME280;23694;43.274;26.924;2023-07-20T07:51:10;98334.66;;;30.72;41.28
37856;BME280;23694;43.274;26.924;2023-07-20T07:53:36;98336.81;;;30.70;40.85
37856;BME280;23694;43.274;26.924;2023-07-20T07:56:03;98338.69;;;30.70;41.68
37856;BME280;23694;43.274;26.924;2023-07-20T07:58:30;98336.41;;;30.62;41.05
37856;BME280;23694;43.274;26.924;2023-07-20T08:00:57;98325.19;;;30.70;41.43
37856;BME280;23694;43.274;26.924;2023-07-20T08:03:23;98334.03;;;30.65;41.27
37856;BME280;23694;43.274;26.924;2023-07-20T08:05:50;98328.94;;;30.69;40.72
37856;BME280;23694;43.274;26.924;2023-07-20T08:08:17;98312.84;;;30.79;40.19
37856;BME280;23694;43.274;26.924;2023-07-20T08:10:43;98309.53;;;30.94;40.21
37856;BME280;23694;43.274;26.924;2023-07-20T08:13:09;98307.50;;;31.23;40.15
37856;BME280;23694;43.274;26.924;2023-07-20T08:15:35;98318.28;;;31.44;40.22
37856;BME280;23694;43.274;26.924;2023-07-20T08:18:02;98302.97;;;31.55;39.31
37856;BME280;23694;43.274;26.924;2023-07-20T08:20:28;98313.72;;;31.72;39.74
37856;BME280;23694;43.274;26.924;2023-07-20T08:22:54;98305.13;;;31.80;38.93
37856;BME280;23694;43.274;26.924;2023-07-20T08:25:21;98312.72;;;31.83;39.46
37856;BME280;23694;43.274;26.924;2023-07-20T08:27:47;98312.72;;;31.83;38.43
37856;BME280;23694;43.274;26.924;2023-07-20T08:30:13;98318.16;;;31.83;39.00
37856;BME280;23694;43.274;26.924;2023-07-20T08:32:39;98312.81;;;31.88;38.82
37856;BME280;23694;43.274;26.924;2023-07-20T08:35:06;98307.47;;;31.71;39.12
37856;BME280;23694;43.274;26.924;2023-07-20T08:37:32;98315.19;;;31.84;38.81
37856;BME280;23694;43.274;26.924;2023-07-20T08:39:58;98313.28;;;31.58;38.88
37856;BME280;23694;43.274;26.924;2023-07-20T08:42:25;98306.47;;;31.77;38.43
37856;BME280;23694;43.274;26.924;2023-07-20T08:44:53;98315.22;;;31.63;38.78
37856;BME280;23694;43.274;26.924;2023-07-20T08:47:22;98313.97;;;31.70;38.69
37856;BME280;23694;43.274;26.924;2023-07-20T08:49:50;98317.41;;;31.88;38.62
37856;BME280;23694;43.274;26.924;2023-07-20T08:52:16;98306.88;;;31.91;38.18
37856;BME280;23694;43.274;26.924;2023-07-20T08:54:42;98324.59;;;31.77;39.14
37856;BME280;23694;43.274;26.924;2023-07-20T08:57:11;98320.13;;;31.88;38.40
37856;BME280;23694;43.274;26.924;2023-07-20T08:59:40;98325.06;;;31.96;38.53
37856;BME280;23694;43.274;26.924;2023-07-20T09:02:08;98310.75;;;32.00;37.99
37856;BME280;23694;43.274;26.924;2023-07-20T09:04:38;98316.34;;;31.89;38.26
37856;BME280;23694;43.274;26.924;2023-07-20T09:07:04;98309.72;;;31.79;37.64
37856;BME280;23694;43.274;26.924;2023-07-20T09:09:30;98309.59;;;31.91;38.56
37856;BME280;23694;43.274;26.924;2023-07-20T09:11:56;98306.56;;;31.88;38.55
37856;BME280;23694;43.274;26.924;2023-07-20T09:14:23;98308.66;;;31.80;38.70
37856;BME280;23694;43.274;26.924;2023-07-20T09:16:52;98301.81;;;32.00;38.81
37856;BME280;23694;43.274;26.924;2023-07-20T09:19:18;98312.19;;;32.13;38.68
37856;BME280;23694;43.274;26.924;2023-07-20T09:21:49;98307.00;;;32.38;38.27
37856;BME280;23694;43.274;26.924;2023-07-20T09:24:17;98308.75;;;32.55;38.15
37856;BME280;23694;43.274;26.924;2023-07-20T09:26:45;98321.41;;;32.49;37.59
37856;BME280;23694;43.274;26.924;2023-07-20T09:29:17;98312.78;;;32.52;37.38
37856;BME280;23694;43.274;26.924;2023-07-20T09:31:58;98311.13;;;32.51;37.73
37856;BME280;23694;43.274;26.924;2023-07-20T09:34:26;98303.75;;;32.41;37.74
37856;BME280;23694;43.274;26.924;2023-07-20T09:36:52;98293.56;;;32.54;37.30
37856;BME280;23694;43.274;26.924;2023-07-20T09:39:18;98302.94;;;32.41;38.21
37856;BME280;23694;43.274;26.924;2023-07-20T09:41:47;98291.81;;;32.37;38.43
37856;BME280;23694;43.274;26.924;2023-07-20T09:44:16;98279.69;;;32.50;38.03
37856;BME280;23694;43.274;26.924;2023-07-20T09:46:47;98282.50;;;32.65;38.49
37856;BME280;23694;43.274;26.924;2023-07-20T09:49:14;98284.28;;;32.97;37.94
37856;BME280;23694;43.274;26.924;2023-07-20T09:51:44;98279.19;;;33.16;38.43
37856;BME280;23694;43.274;26.924;2023-07-20T09:54:13;98284.69;;;33.26;37.11
37856;BME280;23694;43.274;26.924;2023-07-20T09:56:39;98272.47;;;33.28;37.19
37856;BME280;23694;43.274;26.924;2023-07-20T09:59:06;98272.75;;;33.27;37.44
37856;BME280;23694;43.274;26.924;2023-07-20T10:01:32;98273.56;;;33.22;36.74
37856;BME280;23694;43.274;26.924;2023-07-20T10:04:02;98272.38;;;33.03;37.48
37856;BME280;23694;43.274;26.924;2023-07-20T10:06:32;98269.16;;;33.11;37.39
37856;BME280;23694;43.274;26.924;2023-07-20T10:09:01;98268.13;;;33.27;37.29
37856;BME280;23694;43.274;26.924;2023-07-20T10:11:31;98267.59;;;33.25;37.10
37856;BME280;23694;43.274;26.924;2023-07-20T10:13:59;98264.66;;;33.32;36.83
37856;BME280;23694;43.274;26.924;2023-07-20T10:16:34;98267.38;;;33.37;36.96
37856;BME280;23694;43.274;26.924;2023-07-20T10:21:56;98260.34;;;33.56;35.94
37856;BME280;23694;43.274;26.924;2023-07-20T10:24:23;98269.28;;;33.52;35.57
37856;BME280;23694;43.274;26.924;2023-07-20T10:26:50;98263.06;;;33.61;35.28
37856;BME280;23694;43.274;26.924;2023-07-20T10:29:17;98262.25;;;33.76;35.28
37856;BME280;23694;43.274;26.924;2023-07-20T10:31:44;98257.09;;;33.64;34.71
37856;BME280;23694;43.274;26.924;2023-07-20T10:34:10;98252.19;;;33.46;34.66
37856;BME280;23694;43.274;26.924;2023-07-20T10:36:44;98244.03;;;33.56;34.89
37856;BME280;23694;43.274;26.924;2023-07-20T10:39:25;98239.44;;;33.72;35.50
37856;BME280;23694;43.274;26.924;2023-07-20T10:42:06;98220.69;;;33.55;34.82
37856;BME280;23694;43.274;26.924;2023-07-20T10:44:33;98219.13;;;33.85;34.98
37856;BME280;23694;43.274;26.924;2023-07-20T10:47:01;98213.13;;;33.98;33.89
37856;BME280;23694;43.274;26.924;2023-07-20T10:49:28;98199.53;;;34.08;33.80
37856;BME280;23694;43.274;26.924;2023-07-20T10:51:59;98200.88;;;34.11;33.88
37856;BME280;23694;43.274;26.924;2023-07-20T10:56:51;98202.22;;;34.13;33.21
37856;BME280;23694;43.274;26.924;2023-07-20T10:59:37;98188.91;;;34.17;33.62
37856;BME280;23694;43.274;26.924;2023-07-20T11:02:07;98190.28;;;34.09;33.70
37856;BME280;23694;43.274;26.924;2023-07-20T11:04:44;98191.09;;;34.10;33.84
37856;BME280;23694;43.274;26.924;2023-07-20T11:07:15;98190.00;;;34.16;33.28
37856;BME280;23694;43.274;26.924;2023-07-20T11:09:42;98186.97;;;34.22;32.68
37856;BME280;23694;43.274;26.924;2023-07-20T11:12:13;98193.22;;;34.38;32.58
37856;BME280;23694;43.274;26.924;2023-07-20T11:14:53;98186.13;;;34.47;31.67
37856;BME280;23694;43.274;26.924;2023-07-20T11:17:19;98187.47;;;34.55;31.76
37856;BME280;23694;43.274;26.924;2023-07-20T11:19:48;98186.13;;;34.47;32.06
37856;BME280;23694;43.274;26.924;2023-07-20T11:22:19;98189.06;;;34.61;31.10
37856;BME280;23694;43.274;26.924;2023-07-20T11:24:45;98179.78;;;34.72;31.11
37856;BME280;23694;43.274;26.924;2023-07-20T11:27:12;98173.81;;;34.65;30.72
37856;BME280;23694;43.274;26.924;2023-07-20T11:29:38;98177.31;;;34.71;30.90
37856;BME280;23694;43.274;26.924;2023-07-20T11:32:04;98175.63;;;34.90;31.04
37856;BME280;23694;43.274;26.924;2023-07-20T11:34:31;98174.06;;;34.69;30.20
37856;BME280;23694;43.274;26.924;2023-07-20T11:36:57;98168.59;;;34.84;30.91
37856;BME280;23694;43.274;26.924;2023-07-20T11:39:24;98175.28;;;35.02;31.52
37856;BME280;23694;43.274;26.924;2023-07-20T11:41:56;98167.47;;;34.90;31.19
37856;BME280;23694;43.274;26.924;2023-07-20T11:44:24;98157.69;;;34.84;31.25
37856;BME280;23694;43.274;26.924;2023-07-20T11:47:11;98160.94;;;34.81;30.40
37856;BME280;23694;43.274;26.924;2023-07-20T11:49:39;98162.03;;;34.80;30.78
37856;BME280;23694;43.274;26.924;2023-07-20T11:52:10;98153.88;;;34.80;31.45
37856;BME280;23694;43.274;26.924;2023-07-20T11:54:39;98151.69;;;34.82;31.80
37856;BME280;23694;43.274;26.924;2023-07-20T11:57:06;98151.44;;;34.83;30.66
37856;BME280;23694;43.274;26.924;2023-07-20T11:59:32;98140.97;;;34.56;30.60
37856;BME280;23694;43.274;26.924;2023-07-20T12:02:02;98152.84;;;34.71;31.38
37856;BME280;23694;43.274;26.924;2023-07-20T12:04:31;98149.44;;;34.99;31.47
37856;BME280;23694;43.274;26.924;2023-07-20T12:06:57;98142.66;;;34.96;30.48
37856;BME280;23694;43.274;26.924;2023-07-20T12:09:23;98139.38;;;35.00;30.12
37856;BME280;23694;43.274;26.924;2023-07-20T12:11:50;98144.06;;;34.89;30.44
37856;BME280;23694;43.274;26.924;2023-07-20T12:14:16;98143.03;;;34.75;31.35
37856;BME280;23694;43.274;26.924;2023-07-20T12:16:42;98140.25;;;34.90;31.34
37856;BME280;23694;43.274;26.924;2023-07-20T12:19:12;98142.09;;;35.00;30.53
37856;BME280;23694;43.274;26.924;2023-07-20T12:21:40;98143.94;;;35.09;30.00
37856;BME280;23694;43.274;26.924;2023-07-20T12:24:09;98145.31;;;35.12;29.68
37856;BME280;23694;43.274;26.924;2023-07-20T12:26:36;98150.47;;;35.13;30.29
37856;BME280;23694;43.274;26.924;2023-07-20T12:29:02;98150.09;;;35.25;30.29
37856;BME280;23694;43.274;26.924;2023-07-20T12:31:36;98141.72;;;35.11;30.30
37856;BME280;23694;43.274;26.924;2023-07-20T12:34:02;98134.97;;;35.04;30.78
37856;BME280;23694;43.274;26.924;2023-07-20T12:36:28;98151.72;;;34.77;30.96
37856;BME280;23694;43.274;26.924;2023-07-20T12:38:54;98135.59;;;34.95;31.34
37856;BME280;23694;43.274;26.924;2023-07-20T12:41:20;98140.56;;;34.78;31.88
37856;BME280;23694;43.274;26.924;2023-07-20T12:43:46;98134.28;;;34.88;31.63
37856;BME280;23694;43.274;26.924;2023-07-20T12:46:13;98124.66;;;35.01;31.14
37856;BME280;23694;43.274;26.924;2023-07-20T12:48:40;98137.09;;;35.17;31.31
37856;BME280;23694;43.274;26.924;2023-07-20T12:51:08;98130.81;;;35.21;31.08
37856;BME280;23694;43.274;26.924;2023-07-20T12:53:35;98130.56;;;35.18;30.68
37856;BME280;23694;43.274;26.924;2023-07-20T12:56:01;98134.56;;;35.25;31.15
37856;BME280;23694;43.274;26.924;2023-07-20T12:58:27;98127.84;;;35.18;30.59
37856;BME280;23694;43.274;26.924;2023-07-20T13:00:54;98123.72;;;35.20;30.59
37856;BME280;23694;43.274;26.924;2023-07-20T13:03:20;98120.81;;;35.12;30.97
37856;BME280;23694;43.274;26.924;2023-07-20T13:05:47;98120.75;;;35.17;31.32
37856;BME280;23694;43.274;26.924;2023-07-20T13:08:14;98116.13;;;35.17;31.10
37856;BME280;23694;43.274;26.924;2023-07-20T13:10:40;98106.06;;;35.18;31.30